createdAt,value
2023-03-05T00:00:27.198Z,4.51
2023-03-05T00:02:53.686Z,4.86
2023-03-05T00:05:20.016Z,4.53
2023-03-05T00:07:46.301Z,4.92
2023-03-05T00:10:12.647Z,4.57
2023-03-05T00:12:39.017Z,4.50
2023-03-05T00:15:05.326Z,4.53
2023-03-05T00:17:31.663Z,4.57
2023-03-05T00:19:57.978Z,4.57
2023-03-05T00:22:24.337Z,4.26
2023-03-05T00:24:50.664Z,4.47
2023-03-05T00:27:17.010Z,4.25
2023-03-05T00:29:43.413Z,4.43
2023-03-05T00:32:09.876Z,4.51
2023-03-05T00:34:36.218Z,4.38
2023-03-05T00:37:02.632Z,4.20
2023-03-05T00:39:29.008Z,4.12
2023-03-05T00:41:55.365Z,4.10
2023-03-05T00:44:21.701Z,4.09
2023-03-05T00:46:48.101Z,4.12
2023-03-05T00:49:14.521Z,4.45
2023-03-05T00:51:40.928Z,4.74
2023-03-05T00:54:07.262Z,4.62
2023-03-05T00:56:33.604Z,4.28
2023-03-05T00:58:59.988Z,4.42
2023-03-05T01:01:26.310Z,4.38
2023-03-05T01:03:52.684Z,4.22
2023-03-05T01:06:19.078Z,3.84
2023-03-05T01:08:45.387Z,4.07
2023-03-05T01:11:11.693Z,3.96
2023-03-05T01:13:38.098Z,4.05
2023-03-05T01:16:04.489Z,3.91
2023-03-05T01:18:30.839Z,4.01
2023-03-05T01:20:57.142Z,3.86
2023-03-05T01:23:23.498Z,3.78
2023-03-05T01:25:49.796Z,3.98
2023-03-05T01:28:16.172Z,3.96
2023-03-05T01:30:42.498Z,3.89
2023-03-05T01:33:08.849Z,3.86
2023-03-05T01:35:35.185Z,3.89
2023-03-05T01:38:01.530Z,4.08
2023-03-05T01:40:27.925Z,4.00
2023-03-05T01:42:54.279Z,4.08
2023-03-05T01:45:20.621Z,3.95
2023-03-05T01:47:46.952Z,3.95
2023-03-05T01:50:13.290Z,4.19
2023-03-05T01:52:39.603Z,4.08
2023-03-05T01:55:06.018Z,4.02
2023-03-05T01:57:32.321Z,4.09
2023-03-05T01:59:58.633Z,4.11
2023-03-05T02:02:25.043Z,3.92
2023-03-05T02:04:51.384Z,4.26
2023-03-05T02:07:17.772Z,3.88
2023-03-05T02:09:44.106Z,4.05
2023-03-05T02:12:10.483Z,3.73
2023-03-05T02:14:36.812Z,3.99
2023-03-05T02:17:03.131Z,3.98
2023-03-05T02:19:29.503Z,4.01
2023-03-05T02:21:55.804Z,4.09
2023-03-05T02:24:22.154Z,4.09
2023-03-05T02:26:48.513Z,3.95
2023-03-05T02:29:14.881Z,3.83
2023-03-05T02:31:41.204Z,4.13
2023-03-05T02:34:07.553Z,4.05
2023-03-05T02:36:33.932Z,3.91
2023-03-05T02:39:00.265Z,4.12
2023-03-05T02:41:26.606Z,3.97
2023-03-05T02:43:52.968Z,4.04
2023-03-05T02:46:19.333Z,3.99
2023-03-05T02:48:45.664Z,3.92
2023-03-05T02:51:12.096Z,4.00
2023-03-05T02:53:38.405Z,3.97
2023-03-05T02:56:04.863Z,4.23
2023-03-05T02:58:31.173Z,4.13
2023-03-05T03:00:57.543Z,4.27
2023-03-05T03:03:23.991Z,4.13
2023-03-05T03:05:50.308Z,4.00
2023-03-05T03:08:16.600Z,4.18
2023-03-05T03:10:42.916Z,4.10
2023-03-05T03:13:09.282Z,4.09
2023-03-05T03:15:35.609Z,3.83
2023-03-05T03:18:01.917Z,4.01
2023-03-05T03:20:28.230Z,3.99
2023-03-05T03:22:54.591Z,4.05
2023-03-05T03:25:20.915Z,4.16
2023-03-05T03:27:47.234Z,4.08
2023-03-05T03:30:13.569Z,3.92
2023-03-05T03:32:39.918Z,4.08
2023-03-05T03:35:06.280Z,3.95
2023-03-05T03:37:32.595Z,4.03
2023-03-05T03:39:58.927Z,3.86
2023-03-05T03:42:25.284Z,4.00
2023-03-05T03:44:51.662Z,3.75
2023-03-05T03:47:18.018Z,3.74
2023-03-05T03:49:44.397Z,3.72
2023-03-05T03:52:10.781Z,3.86
2023-03-05T03:54:37.094Z,3.81
2023-03-05T03:57:03.442Z,3.91
2023-03-05T03:59:29.875Z,3.69
2023-03-05T04:01:56.199Z,3.77
2023-03-05T04:04:22.564Z,3.54
2023-03-05T04:06:48.949Z,3.75
2023-03-05T04:09:15.279Z,3.83
2023-03-05T04:11:41.622Z,3.79
2023-03-05T04:14:07.993Z,3.75
2023-03-05T04:16:34.332Z,3.60
2023-03-05T04:19:00.663Z,3.64
2023-03-05T04:21:27.013Z,3.56
2023-03-05T04:23:53.396Z,3.71
2023-03-05T04:26:19.777Z,3.30
2023-03-05T04:28:46.102Z,3.37
2023-03-05T04:31:12.530Z,3.64
2023-03-05T04:33:38.902Z,3.37
2023-03-05T04:36:05.322Z,3.51
2023-03-05T04:38:31.701Z,3.32
2023-03-05T04:40:58.040Z,3.64
2023-03-05T04:43:24.381Z,3.59
2023-03-05T04:45:50.752Z,3.41
2023-03-05T04:48:17.096Z,3.30
2023-03-05T04:50:43.457Z,3.28
2023-03-05T04:53:09.808Z,3.37
2023-03-05T04:55:36.151Z,3.35
2023-03-05T04:58:02.511Z,3.42
2023-03-05T05:00:28.834Z,3.49
2023-03-05T05:02:55.218Z,3.31
2023-03-05T05:05:21.632Z,3.57
2023-03-05T05:07:48.002Z,3.08
2023-03-05T05:10:14.352Z,3.14
2023-03-05T05:12:40.730Z,3.22
2023-03-05T05:15:07.048Z,3.08
2023-03-05T05:17:33.348Z,3.40
2023-03-05T05:19:59.743Z,3.08
2023-03-05T05:22:26.080Z,3.52
2023-03-05T05:24:52.462Z,3.26
2023-03-05T05:27:18.783Z,3.26
2023-03-05T05:29:45.087Z,3.21
2023-03-05T05:32:11.421Z,3.45
2023-03-05T05:34:37.775Z,3.34
2023-03-05T05:37:04.130Z,3.42
2023-03-05T05:39:30.602Z,3.21
2023-03-05T05:41:56.931Z,3.30
2023-03-05T05:44:23.284Z,3.12
2023-03-05T05:46:49.677Z,3.43
2023-03-05T05:49:16.097Z,3.29
2023-03-05T05:51:42.421Z,3.35
2023-03-05T05:54:08.754Z,3.47
2023-03-05T05:56:35.116Z,3.38
2023-03-05T05:59:01.433Z,3.35
2023-03-05T06:01:27.779Z,3.29
2023-03-05T06:03:54.108Z,3.18
2023-03-05T06:06:20.434Z,3.26
2023-03-05T06:08:46.812Z,3.33
2023-03-05T06:11:13.127Z,3.19
2023-03-05T06:13:39.489Z,3.02
2023-03-05T06:16:05.858Z,3.11
2023-03-05T06:18:32.210Z,3.30
2023-03-05T06:20:58.522Z,3.32
2023-03-05T06:23:24.850Z,3.02
2023-03-05T06:25:51.262Z,3.06
2023-03-05T06:28:17.602Z,3.12
2023-03-05T06:30:43.951Z,3.10
2023-03-05T06:33:10.343Z,2.85
2023-03-05T06:35:37.834Z,3.02
2023-03-05T06:38:04.196Z,3.18
2023-03-05T06:40:30.574Z,3.46
2023-03-05T06:42:56.985Z,3.56
2023-03-05T06:45:23.302Z,3.48
2023-03-05T06:47:49.886Z,3.61
2023-03-05T06:50:16.256Z,3.68
2023-03-05T06:52:42.663Z,3.48
2023-03-05T06:55:08.997Z,3.30
2023-03-05T06:57:35.356Z,3.43
2023-03-05T07:00:01.746Z,3.62
2023-03-05T07:02:28.176Z,3.22
2023-03-05T07:04:54.556Z,3.19
2023-03-05T07:07:20.904Z,3.17
2023-03-05T07:09:47.224Z,2.94
2023-03-05T07:12:13.532Z,2.98
2023-03-05T07:14:39.887Z,2.88
2023-03-05T07:17:06.259Z,2.90
2023-03-05T07:19:32.612Z,2.93
2023-03-05T07:21:58.981Z,3.07
2023-03-05T07:24:25.296Z,2.93
2023-03-05T07:26:51.698Z,2.88
2023-03-05T07:29:18.043Z,2.72
2023-03-05T07:31:44.352Z,2.89
2023-03-05T07:34:10.666Z,3.06
2023-03-05T07:36:37.054Z,3.24
2023-03-05T07:39:03.376Z,3.20
2023-03-05T07:41:29.688Z,3.23
2023-03-05T07:43:56.077Z,3.28
2023-03-05T07:46:22.494Z,3.20
2023-03-05T07:48:48.951Z,3.13
2023-03-05T07:51:15.302Z,3.15
2023-03-05T07:53:41.597Z,3.27
2023-03-05T07:56:07.924Z,3.26
2023-03-05T07:58:34.249Z,3.35
2023-03-05T08:01:00.552Z,3.14
2023-03-05T08:03:26.901Z,3.25
2023-03-05T08:05:53.281Z,3.27
2023-03-05T08:08:19.627Z,2.79
2023-03-05T08:10:45.972Z,2.96
2023-03-05T08:13:12.331Z,2.97
2023-03-05T08:15:38.725Z,2.83
2023-03-05T08:18:05.109Z,2.96
2023-03-05T08:20:31.406Z,3.00
2023-03-05T08:22:57.792Z,2.69
2023-03-05T08:25:24.120Z,3.02
2023-03-05T08:27:50.472Z,2.89
2023-03-05T08:30:16.851Z,2.65
2023-03-05T08:32:43.211Z,2.71
2023-03-05T08:35:09.609Z,2.93
2023-03-05T08:37:35.978Z,2.83
2023-03-05T08:40:02.301Z,2.88
2023-03-05T08:42:28.681Z,2.89
2023-03-05T08:44:55.086Z,2.73
2023-03-05T08:47:21.465Z,2.68
2023-03-05T08:49:47.946Z,2.54
2023-03-05T08:52:14.302Z,2.52
2023-03-05T08:54:40.671Z,2.71
2023-03-05T08:57:07.063Z,2.74
2023-03-05T08:59:33.411Z,2.88
2023-03-05T09:01:59.722Z,2.56
2023-03-05T09:04:26.082Z,2.67
2023-03-05T09:06:52.400Z,2.56
2023-03-05T09:09:18.730Z,2.68
2023-03-05T09:11:45.109Z,2.61
2023-03-05T09:14:11.423Z,2.63
2023-03-05T09:16:37.824Z,2.86
2023-03-05T09:19:04.234Z,2.62
2023-03-05T09:21:30.604Z,3.03
2023-03-05T09:23:56.972Z,3.08
2023-03-05T09:26:23.316Z,2.96
2023-03-05T09:28:49.635Z,3.26
2023-03-05T09:31:16.137Z,5.32
2023-03-05T09:33:42.520Z,7.20
2023-03-05T09:36:08.825Z,6.97
2023-03-05T09:38:35.187Z,4.90
2023-03-05T09:41:01.494Z,3.83
2023-03-05T09:43:27.856Z,3.44
2023-03-05T09:45:54.244Z,3.34
2023-03-05T09:48:20.659Z,3.65
2023-03-05T09:50:47.023Z,3.40
2023-03-05T09:53:13.379Z,3.40
2023-03-05T09:55:39.892Z,3.38
2023-03-05T09:58:06.193Z,3.61
2023-03-05T10:00:32.623Z,3.28
2023-03-05T10:02:59.073Z,3.27
2023-03-05T10:05:25.396Z,3.31
2023-03-05T10:07:51.754Z,3.56
2023-03-05T10:10:18.153Z,4.47
2023-03-05T10:12:44.508Z,7.58
2023-03-05T10:15:10.862Z,9.78
2023-03-05T10:17:37.184Z,9.73
2023-03-05T10:20:03.565Z,10.26
2023-03-05T10:22:29.992Z,10.52
2023-03-05T10:24:56.340Z,10.41
2023-03-05T10:27:22.763Z,9.24
2023-03-05T10:29:49.099Z,9.18
2023-03-05T10:32:15.587Z,7.18
2023-03-05T10:34:41.946Z,5.35
2023-03-05T10:37:08.296Z,5.16
2023-03-05T10:39:34.662Z,4.89
2023-03-05T10:42:00.978Z,4.90
2023-03-05T10:44:27.271Z,4.52
2023-03-05T10:46:55.175Z,4.53
2023-03-05T10:49:22.295Z,4.59
2023-03-05T10:51:48.632Z,4.68
2023-03-05T10:54:14.980Z,4.62
2023-03-05T10:56:41.332Z,4.49
2023-03-05T10:59:07.689Z,4.40
2023-03-05T11:01:34.100Z,4.11
2023-03-05T11:04:00.547Z,4.30
2023-03-05T11:06:26.973Z,4.47
2023-03-05T11:08:53.437Z,4.43
2023-03-05T11:11:19.803Z,5.26
2023-03-05T11:13:46.214Z,4.95
2023-03-05T11:16:12.593Z,4.61
2023-03-05T11:18:39.024Z,4.22
2023-03-05T11:21:05.374Z,4.35
2023-03-05T11:23:31.747Z,4.35
2023-03-05T11:25:58.058Z,4.15
2023-03-05T11:28:32.968Z,4.03
2023-03-05T11:31:00.172Z,3.90
2023-03-05T11:33:26.614Z,3.76
2023-03-05T11:35:53.082Z,3.94
2023-03-05T11:38:19.511Z,3.79
2023-03-05T11:40:45.881Z,3.91
2023-03-05T11:43:12.202Z,3.59
2023-03-05T11:45:38.618Z,3.76
2023-03-05T11:48:05.030Z,3.79
2023-03-05T11:50:31.373Z,3.65
2023-03-05T11:52:57.781Z,3.62
2023-03-05T11:55:24.101Z,3.55
2023-03-05T11:57:50.507Z,3.47
2023-03-05T12:00:16.890Z,3.88
2023-03-05T12:02:43.326Z,4.29
2023-03-05T12:05:09.781Z,3.84
2023-03-05T12:07:36.163Z,4.04
2023-03-05T12:10:02.570Z,3.67
2023-03-05T12:12:29.075Z,3.76
2023-03-05T12:14:55.410Z,3.78
2023-03-05T12:17:21.815Z,3.94
2023-03-05T12:19:48.294Z,3.66
2023-03-05T12:22:14.670Z,4.00
2023-03-05T12:24:41.072Z,4.01
2023-03-05T12:27:07.542Z,3.87
2023-03-05T12:29:33.918Z,3.70
2023-03-05T12:32:00.369Z,3.66
2023-03-05T12:34:26.879Z,3.84
2023-03-05T12:36:53.414Z,3.78
2023-03-05T12:39:19.823Z,3.87
2023-03-05T12:41:46.183Z,3.89
2023-03-05T12:44:12.547Z,3.84
2023-03-05T12:46:38.959Z,3.82
2023-03-05T12:49:05.377Z,3.76
2023-03-05T12:51:31.779Z,3.75
2023-03-05T12:53:58.077Z,3.85
2023-03-05T12:56:24.378Z,4.13
2023-03-05T12:58:50.765Z,4.95
2023-03-05T13:01:17.083Z,4.93
2023-03-05T13:03:43.457Z,5.23
2023-03-05T13:06:09.857Z,4.96
2023-03-05T13:08:36.222Z,4.80
2023-03-05T13:11:02.561Z,4.55
2023-03-05T13:13:28.958Z,4.41
2023-03-05T13:15:55.311Z,4.44
2023-03-05T13:18:21.632Z,4.39
2023-03-05T13:20:47.951Z,4.19
2023-03-05T13:23:14.321Z,3.97
2023-03-05T13:25:40.654Z,4.15
2023-03-05T13:28:06.962Z,3.92
2023-03-05T13:30:34.733Z,4.18
2023-03-05T13:33:01.169Z,4.10
2023-03-05T13:35:27.501Z,3.98
2023-03-05T13:37:53.815Z,4.03
2023-03-05T13:40:20.151Z,3.98
2023-03-05T13:42:46.536Z,3.78
2023-03-05T13:45:12.892Z,3.63
2023-03-05T13:47:39.191Z,4.18
2023-03-05T13:50:05.507Z,3.85
2023-03-05T13:52:31.827Z,3.78
2023-03-05T13:54:58.130Z,3.75
2023-03-05T13:57:24.444Z,3.57
2023-03-05T13:59:50.819Z,3.68
2023-03-05T14:02:17.190Z,3.63
2023-03-05T14:04:43.666Z,3.50
2023-03-05T14:07:10.078Z,3.34
2023-03-05T14:09:36.375Z,3.51
2023-03-05T14:12:02.737Z,3.69
2023-03-05T14:14:29.138Z,3.18
2023-03-05T14:16:55.726Z,3.21
2023-03-05T14:19:22.084Z,3.40
2023-03-05T14:21:48.409Z,3.49
2023-03-05T14:24:14.795Z,3.29
2023-03-05T14:26:41.182Z,3.22
2023-03-05T14:29:07.556Z,3.14
2023-03-05T14:31:33.926Z,3.15
2023-03-05T14:34:00.309Z,3.02
2023-03-05T14:36:26.674Z,3.20
2023-03-05T14:38:53.012Z,3.18
2023-03-05T14:41:19.400Z,3.12
2023-03-05T14:43:45.747Z,3.03
2023-03-05T14:46:13.429Z,3.07
2023-03-05T14:48:39.962Z,3.32
2023-03-05T14:51:06.330Z,3.29
2023-03-05T14:53:32.678Z,3.11
2023-03-05T14:55:58.997Z,3.20
2023-03-05T14:58:25.346Z,3.17
2023-03-05T15:00:51.699Z,3.01
2023-03-05T15:03:18.034Z,3.00
2023-03-05T15:05:44.387Z,2.99
2023-03-05T15:08:10.845Z,2.86
2023-03-05T15:10:37.143Z,2.95
2023-03-05T15:13:03.454Z,2.94
2023-03-05T15:15:29.860Z,3.14
2023-03-05T15:17:56.220Z,3.13
2023-03-05T15:20:22.537Z,2.88
2023-03-05T15:22:48.864Z,2.72
2023-03-05T15:25:15.172Z,2.70
2023-03-05T15:27:41.504Z,2.64
2023-03-05T15:30:07.852Z,2.86
2023-03-05T15:32:34.216Z,2.82
2023-03-05T15:35:00.599Z,2.88
2023-03-05T15:37:26.905Z,2.85
2023-03-05T15:39:53.236Z,2.98
2023-03-05T15:42:19.553Z,2.76
2023-03-05T15:44:45.867Z,2.81
2023-03-05T15:47:12.201Z,2.58
2023-03-05T15:49:38.518Z,2.77
2023-03-05T15:52:04.814Z,2.56
2023-03-05T15:54:31.130Z,2.66
2023-03-05T15:56:57.437Z,2.61
2023-03-05T15:59:23.737Z,2.67
2023-03-05T16:01:50.085Z,2.44
2023-03-05T16:04:16.437Z,2.43
2023-03-05T16:06:42.801Z,2.61
2023-03-05T16:09:09.127Z,2.72
2023-03-05T16:11:35.479Z,2.50
2023-03-05T16:14:01.855Z,2.62
2023-03-05T16:16:28.212Z,2.49
2023-03-05T16:18:54.603Z,2.48
2023-03-05T16:21:20.959Z,2.77
2023-03-05T16:23:47.384Z,2.35
2023-03-05T16:26:13.724Z,2.26
2023-03-05T16:28:40.087Z,2.55
2023-03-05T16:31:06.545Z,2.35
2023-03-05T16:33:32.952Z,2.65
2023-03-05T16:35:59.350Z,2.64
2023-03-05T16:38:25.744Z,2.51
2023-03-05T16:41:07.214Z,2.35
2023-03-05T16:43:34.012Z,2.53
2023-03-05T16:46:00.327Z,2.45
2023-03-05T16:48:26.655Z,2.46
2023-03-05T16:50:53.002Z,2.52
2023-03-05T16:53:19.371Z,2.59
2023-03-05T16:55:45.680Z,2.79
2023-03-05T16:58:12.005Z,2.48
2023-03-05T17:00:38.393Z,2.58
2023-03-05T17:03:04.830Z,2.42
2023-03-05T17:05:31.229Z,2.71
2023-03-05T17:07:57.610Z,2.84
2023-03-05T17:10:23.926Z,2.59
2023-03-05T17:12:50.264Z,2.60
2023-03-05T17:15:16.638Z,3.32
2023-03-05T17:17:43.012Z,3.83
2023-03-05T17:20:09.343Z,3.60
2023-03-05T17:22:35.682Z,3.30
2023-03-05T17:25:01.997Z,3.16
2023-03-05T17:27:28.311Z,3.01
2023-03-05T17:29:54.700Z,2.94
2023-03-05T17:32:21.089Z,2.82
2023-03-05T17:34:47.440Z,2.99
2023-03-05T17:37:13.803Z,2.93
2023-03-05T17:39:40.118Z,3.13
2023-03-05T17:42:06.473Z,2.86
2023-03-05T17:44:32.964Z,2.94
2023-03-05T17:46:59.374Z,3.07
2023-03-05T17:49:25.719Z,2.85
2023-03-05T17:51:52.031Z,3.14
2023-03-05T17:54:18.359Z,2.95
2023-03-05T17:56:44.660Z,3.06
2023-03-05T17:59:11.007Z,2.88
2023-03-05T18:01:37.405Z,2.93
2023-03-05T18:04:04.043Z,3.12
2023-03-05T18:06:30.457Z,3.11
2023-03-05T18:08:56.932Z,3.06
2023-03-05T18:11:23.266Z,2.90
2023-03-05T18:13:49.615Z,3.20
2023-03-05T18:16:15.986Z,3.09
2023-03-05T18:18:42.405Z,3.06
2023-03-05T18:21:08.806Z,3.38
2023-03-05T18:23:35.168Z,3.17
2023-03-05T18:26:01.574Z,3.07
2023-03-05T18:28:27.969Z,3.12
2023-03-05T18:30:54.396Z,3.76
2023-03-05T18:33:20.720Z,3.97
2023-03-05T18:35:47.189Z,3.67
2023-03-05T18:38:13.504Z,4.38
2023-03-05T18:40:39.884Z,5.40
2023-03-05T18:43:06.259Z,5.38
2023-03-05T18:45:32.617Z,5.70
2023-03-05T18:47:59.005Z,5.59
2023-03-05T18:50:25.378Z,5.41
2023-03-05T18:52:51.794Z,5.51
2023-03-05T18:55:18.177Z,5.24
2023-03-05T18:57:44.563Z,5.33
2023-03-05T19:00:10.918Z,5.47
2023-03-05T19:02:37.284Z,5.14
2023-03-05T19:05:03.596Z,4.94
2023-03-05T19:07:30.041Z,5.31
2023-03-05T19:09:59.363Z,5.33
2023-03-05T19:12:25.856Z,5.31
2023-03-05T19:14:52.204Z,5.38
2023-03-05T19:17:18.587Z,5.52
2023-03-05T19:19:44.910Z,5.21
2023-03-05T19:22:11.274Z,5.02
2023-03-05T19:24:37.593Z,5.30
2023-03-05T19:27:04.069Z,5.48
2023-03-05T19:29:32.803Z,5.70
2023-03-05T19:31:59.274Z,5.76
2023-03-05T19:34:25.658Z,5.87
2023-03-05T19:36:52.029Z,5.76
2023-03-05T19:39:18.388Z,5.76
2023-03-05T19:41:44.748Z,5.77
2023-03-05T19:44:11.198Z,6.02
2023-03-05T19:46:37.550Z,5.70
2023-03-05T19:49:03.897Z,5.87
2023-03-05T19:51:30.234Z,6.18
2023-03-05T19:53:56.529Z,6.25
2023-03-05T19:56:22.891Z,5.95
2023-03-05T19:58:49.307Z,5.92
2023-03-05T20:01:15.670Z,6.12
2023-03-05T20:03:42.037Z,6.34
2023-03-05T20:06:08.343Z,6.62
2023-03-05T20:08:34.663Z,6.25
2023-03-05T20:11:01.025Z,6.40
2023-03-05T20:13:27.433Z,6.36
2023-03-05T20:15:53.845Z,6.60
2023-03-05T20:18:20.232Z,6.48
2023-03-05T20:20:46.578Z,6.72
2023-03-05T20:23:12.936Z,6.75
2023-03-05T20:25:39.303Z,6.45
2023-03-05T20:28:05.628Z,6.99
2023-03-05T20:30:32.003Z,7.34
2023-03-05T20:32:58.324Z,6.89
2023-03-05T20:35:24.677Z,6.79
2023-03-05T20:37:51.045Z,6.89
2023-03-05T20:40:17.446Z,7.05
2023-03-05T20:42:43.992Z,7.08
2023-03-05T20:45:10.403Z,7.16
2023-03-05T20:47:36.786Z,7.42
2023-03-05T20:50:03.148Z,7.30
2023-03-05T20:52:29.486Z,7.33
2023-03-05T20:54:55.794Z,7.52
2023-03-05T20:57:22.133Z,7.10
2023-03-05T20:59:48.479Z,7.57
2023-03-05T21:02:14.902Z,7.63
2023-03-05T21:04:41.250Z,7.89
2023-03-05T21:07:07.598Z,7.78
2023-03-05T21:09:33.968Z,7.80
2023-03-05T21:12:00.319Z,7.63
2023-03-05T21:14:26.689Z,8.03
2023-03-05T21:16:53.017Z,7.46
2023-03-05T21:19:19.484Z,7.65
2023-03-05T21:21:45.820Z,7.72
2023-03-05T21:24:12.624Z,7.33
2023-03-05T21:26:38.986Z,7.56
2023-03-05T21:29:05.320Z,7.40
2023-03-05T21:31:31.641Z,7.44
2023-03-05T21:33:58.040Z,7.35
2023-03-05T21:36:24.374Z,7.24
2023-03-05T21:38:50.675Z,7.68
2023-03-05T21:41:17.012Z,7.11
2023-03-05T21:43:43.339Z,6.90
2023-03-05T21:46:09.728Z,6.94
2023-03-05T21:48:36.127Z,7.20
2023-03-05T21:51:02.488Z,6.98
2023-03-05T21:53:28.785Z,6.97
2023-03-05T21:55:55.119Z,6.94
2023-03-05T21:58:21.416Z,6.77
2023-03-05T22:00:47.793Z,6.85
2023-03-05T22:03:14.225Z,7.11
2023-03-05T22:05:40.578Z,6.75
2023-03-05T22:08:06.940Z,6.43
2023-03-05T22:10:33.324Z,6.87
2023-03-05T22:12:59.637Z,6.72
2023-03-05T22:15:25.964Z,6.72
2023-03-05T22:17:52.430Z,6.84
2023-03-05T22:20:18.732Z,6.74
2023-03-05T22:22:45.031Z,6.93
2023-03-05T22:25:11.378Z,6.67
2023-03-05T22:27:37.735Z,6.89
2023-03-05T22:30:04.104Z,6.68
2023-03-05T22:32:30.507Z,6.69
2023-03-05T22:34:56.878Z,6.49
2023-03-05T22:37:23.205Z,6.76
2023-03-05T22:39:49.652Z,6.59
2023-03-05T22:42:16.016Z,6.92
2023-03-05T22:44:42.381Z,6.65
2023-03-05T22:47:08.764Z,6.38
2023-03-05T22:49:35.127Z,6.41
2023-03-05T22:52:01.527Z,6.62
2023-03-05T22:54:27.870Z,6.73
2023-03-05T22:56:54.220Z,6.77
2023-03-05T22:59:20.618Z,6.49
2023-03-05T23:01:47.111Z,6.22
2023-03-05T23:04:13.512Z,6.72
2023-03-05T23:06:39.903Z,6.37
2023-03-05T23:09:06.248Z,6.51
2023-03-05T23:11:32.601Z,6.47
2023-03-05T23:13:58.926Z,6.69
2023-03-05T23:16:25.237Z,6.71
2023-03-05T23:18:51.580Z,6.87
2023-03-05T23:21:17.916Z,6.68
2023-03-05T23:23:44.298Z,6.89
2023-03-05T23:26:10.685Z,6.79
2023-03-05T23:28:36.996Z,6.83
2023-03-05T23:31:03.336Z,7.06
2023-03-05T23:33:29.721Z,6.94
2023-03-05T23:35:56.117Z,7.35
2023-03-05T23:38:22.488Z,7.13
2023-03-05T23:40:48.803Z,7.28
2023-03-05T23:43:15.135Z,7.08
2023-03-05T23:45:41.484Z,6.84
2023-03-05T23:48:07.801Z,6.89
2023-03-05T23:50:34.102Z,7.15
2023-03-05T23:53:02.021Z,7.30
2023-03-05T23:55:28.688Z,7.12
2023-03-05T23:57:55.074Z,7.44
